Glenwood, Canada
Current Conditions -  °F | °C
As of 4:18 AM on Saturday 25 Oct 2014 (Local Time) from CYQX Reporting Station
Light Rain Light Rain  
Wind Chill: 33°   Ceiling: 300
Heat Index: 41°   Visibility: 2.5mi
Dew Point: 41°   Wind: 15mph
Humidity: 100%   Direction: 40°NE
Pressure: 29.59"   Gusts: 25mph
Location:  49°N, 54.88°W
Report Text: CYQX 250618Z 04013G22KT 2 1/2SM -RA BR OVC003 05/05 A2959 RMK FG2SF6 SLP024
Loading
Personal Weather Stations






























Interactive Weather Map
Tropical Storm Tracking
New forecast layout! Learn more

10-Day Weather Forecast

Advertisements
Track Severe Weather on mobile